Aérodrome :
LOGIN :

S'inscrire | Disclaimer

   EN    FR    IT 

 










Légende :    VFR   VFR Marginal   IFR   IFR Intensif   IFR Très Intensif
Visi : 
Plafond : 
>= 8 km
>= 3000ft
5 à 8 km
1000 à 3000 ft
1500m à 5 km
500 à 1000 ft
800 à 1500m
200 à 500 ft
< 800m
< 200 ft
Symboles :   Orages  Brouillard  Fortes neiges  Fortes précipitations  Vent > 20 kt
SIGMETs :   Divers  Orages  Givrage  Turbulence  Onde Orograph.  Cendres Volcan.







- Altitude de l'aérodrome : 512 ft
- Code IATA : URO
- Voir les cartes d'approche


LFOP - Rouen Vallée de Seine

DERNIER METAR :
  • 221030Z AUTO 18007KT 2100 BR OVC004 01/01 Q1005 TEMPO SHSNRA OVC003 BKN030TCU

METARs EXPIRÉS :
  • 221000Z AUTO 17006KT 1600 1400 R22/1900D BR OVC005 01/00 Q1005 TEMPO SHSNRA OVC003 BKN030TCU
  • 220930Z AUTO 17005KT 1300 1200 R22/1900N BR OVC003 01/00 Q1006 TEMPO 1500 SHSNRA OVC003 BKN030TCU
  • 220900Z AUTO 18007KT 1900 BR OVC005 01/00 Q1006 TEMPO SHSNRA OVC003 BKN030TCU
  • 220830Z AUTO 19008KT 2900 BR OVC005 01/00 Q1006 TEMPO SHSNRA OVC003 BKN030TCU
  • 220800Z AUTO 19010KT 2800 -DZ BR BKN005 OVC010 01/00 Q1006 TEMPO 18015G25KT SHSNRA OVC003 BKN030TCU

TAF TAF LFOP
Valide du 22 à 06h jusqu'au 23 à 06h UTC


220500Z 2206/2306 17012KT 6000 OVC007
TEMPO 2206/2209 18015G25KT 1500 SN OVC002
FM220900 22008KT 8000 BKN015
TEMPO 2209/2222 1500 SHSNRA OVC003 BKN030TCU
ATIS : +33 2 35 80 80 34
Météo : +33 2 32 86 52 80
Pas de NOTAMs connus pour ce terrain.



MET'MAP, la Météo Aéronautique d'un coup d'oeil ! - Copyright ORBIFLY Décembre 2007 - Disclaimer

ORBIFLY MET'MAP TEAM :

Programmation & Développement : Alexandra Zaïnal
Conception & Développement : Baudouin d'Aumeries
Co-Programmation & Développement : Marc-Olivier Méhu
Soutien technique & logistique : Manuel Goepfert

Contact : metmap@orbifly.com




SOURCES & CREDITS :

   NOAA